Time;durP1;ratioP1;P1;durP2;ratioP2;P2;SDS_P1;SDS_P2;PMS_P1;PMS_P2;Temp;Humidity;BMP_temperature;BMP_pressure;BME280_temperature;BME280_humidity;BME280_pressure;Samples;Min_cycle;Max_cycle;Signal;HPM_P1;HPM_P2
2023/05/31 00:01:50;;;;;;;10.65;4.10;;;10.40;99.90;;;;;;4928722;29;20489;-70
2023/05/31 00:04:16;;;;;;;9.65;4.20;;;10.40;99.90;;;;;;4945052;29;20051;-70
2023/05/31 00:06:42;;;;;;;9.98;4.20;;;10.30;99.90;;;;;;4951498;28;20582;-70
2023/05/31 00:09:07;;;;;;;7.82;4.07;;;10.30;99.90;;;;;;4943436;29;20404;-70
2023/05/31 00:11:33;;;;;;;12.35;4.03;;;10.30;99.90;;;;;;4945089;29;20200;-69
2023/05/31 00:13:59;;;;;;;10.50;4.03;;;10.30;99.90;;;;;;4946185;28;20054;-69
2023/05/31 00:16:25;;;;;;;9.70;3.95;;;10.30;99.90;;;;;;4944889;28;20050;-69
2023/05/31 00:18:50;;;;;;;7.72;3.70;;;10.50;99.90;;;;;;4944210;29;20129;-70
2023/05/31 00:21:16;;;;;;;9.70;4.22;;;10.20;99.90;;;;;;4928361;29;20051;-70
2023/05/31 00:23:42;;;;;;;10.05;3.97;;;10.10;99.90;;;;;;4944620;29;20610;-70
2023/05/31 00:26:07;;;;;;;7.70;3.63;;;10.10;99.90;;;;;;4946455;28;20110;-70
2023/05/31 00:28:33;;;;;;;9.07;3.90;;;10.10;99.90;;;;;;4947867;28;20150;-70
2023/05/31 00:30:59;;;;;;;10.43;4.13;;;10.40;99.90;;;;;;4946252;28;20055;-70
2023/05/31 00:33:24;;;;;;;10.00;4.00;;;10.10;99.90;;;;;;4950191;29;20919;-70
2023/05/31 00:35:50;;;;;;;10.95;3.90;;;10.00;99.90;;;;;;4931431;29;20089;-69
2023/05/31 00:38:16;;;;;;;8.55;3.90;;;10.00;99.90;;;;;;4966528;28;20046;-70
2023/05/31 00:40:41;;;;;;;8.90;3.92;;;10.10;99.90;;;;;;4950943;28;20158;-69
2023/05/31 00:43:07;;;;;;;10.80;3.80;;;10.00;99.90;;;;;;4947264;29;20043;-69
2023/05/31 00:45:33;;;;;;;7.60;3.50;;;9.90;99.90;;;;;;4948870;28;20058;-70
2023/05/31 00:48:00;;;;;;;10.55;4.40;;;9.90;99.90;;;;;;4930659;29;20134;-69
2023/05/31 00:50:26;;;;;;;10.63;4.30;;;9.80;99.90;;;;;;4948206;29;20035;-69
2023/05/31 00:52:54;;;;;;;7.75;4.20;;;10.00;99.90;;;;;;4948956;28;20054;-70
2023/05/31 00:55:21;;;;;;;9.85;4.40;;;9.80;99.90;;;;;;4948800;29;20043;-69
2023/05/31 00:57:47;;;;;;;9.73;4.07;;;9.80;99.90;;;;;;4962334;28;20057;-69
2023/05/31 01:00:15;;;;;;;8.65;3.63;;;9.70;99.90;;;;;;4956993;28;20412;-69
2023/05/31 01:02:41;;;;;;;8.48;3.80;;;9.70;99.90;;;;;;4947291;29;20573;-69
2023/05/31 01:05:08;;;;;;;11.48;4.25;;;9.60;99.90;;;;;;4946306;29;20599;-69
2023/05/31 01:07:35;;;;;;;9.90;3.65;;;9.60;99.90;;;;;;4931231;29;20043;-69
2023/05/31 01:10:03;;;;;;;8.40;4.03;;;9.60;99.90;;;;;;4955730;28;20051;-69
2023/05/31 01:12:46;;;;;;;9.32;4.30;;;9.50;99.90;;;;;;4949976;28;20047;-70
2023/05/31 01:15:17;;;;;;;12.98;4.95;;;9.50;99.90;;;;;;4947588;29;20417;-70
2023/05/31 01:18:01;;;;;;;9.82;4.38;;;9.40;99.90;;;;;;4946277;29;20058;-70
2023/05/31 01:20:35;;;;;;;8.90;4.57;;;9.40;99.90;;;;;;4946273;28;20054;-70
2023/05/31 01:23:05;;;;;;;8.23;4.05;;;9.40;99.90;;;;;;4948082;28;20043;-70
2023/05/31 01:25:57;;;;;;;7.78;4.00;;;9.30;99.90;;;;;;4931134;29;20123;-69
2023/05/31 01:28:25;;;;;;;8.07;4.00;;;9.30;99.90;;;;;;4960304;28;20503;-70
2023/05/31 01:30:52;;;;;;;9.57;4.70;;;9.30;99.90;;;;;;4948102;28;20050;-69
2023/05/31 01:33:20;;;;;;;8.43;4.03;;;9.20;99.90;;;;;;4947282;29;20122;-70
2023/05/31 01:35:46;;;;;;;10.20;4.13;;;9.20;99.90;;;;;;4928717;29;20051;-70
2023/05/31 01:38:11;;;;;;;10.60;4.18;;;9.20;99.90;;;;;;4960685;28;20045;-70
2023/05/31 01:40:38;;;;;;;11.98;4.30;;;9.20;99.90;;;;;;4931358;29;20054;-70
2023/05/31 01:43:05;;;;;;;8.68;4.57;;;9.10;99.90;;;;;;4949098;28;20489;-70
2023/05/31 01:45:31;;;;;;;11.15;5.10;;;9.10;99.90;;;;;;4946397;28;20039;-70
2023/05/31 01:48:04;;;;;;;9.32;4.05;;;9.10;99.90;;;;;;4945817;28;20618;-70
2023/05/31 01:50:33;;;;;;;9.35;4.18;;;9.00;99.90;;;;;;4932385;29;20411;-70
2023/05/31 01:52:59;;;;;;;8.45;4.50;;;9.00;99.90;;;;;;4946428;29;20248;-70
2023/05/31 01:55:24;;;;;;;8.55;4.25;;;9.30;99.90;;;;;;4948295;29;20389;-70
2023/05/31 01:57:52;;;;;;;9.18;4.47;;;9.00;99.90;;;;;;4947227;28;20935;-70
2023/05/31 02:00:19;;;;;;;10.98;5.05;;;9.00;99.90;;;;;;4948742;29;20114;-69
2023/05/31 02:02:46;;;;;;;9.07;4.95;;;9.00;99.90;;;;;;4931391;29;20500;-70
2023/05/31 02:05:12;;;;;;;10.50;4.82;;;9.00;99.90;;;;;;4948619;28;20051;-69
2023/05/31 02:07:43;;;;;;;11.02;5.35;;;9.00;99.90;;;;;;4946304;28;20122;-70
2023/05/31 02:10:10;;;;;;;10.13;4.78;;;9.00;99.90;;;;;;4947159;29;20192;-70
2023/05/31 02:12:35;;;;;;;9.32;4.13;;;9.00;99.90;;;;;;4945350;28;20047;-69
2023/05/31 02:15:02;;;;;;;12.75;4.50;;;9.00;99.90;;;;;;4945738;29;20056;-70
2023/05/31 02:17:28;;;;;;;12.20;4.50;;;8.90;99.90;;;;;;4948225;28;20109;-70
2023/05/31 02:19:55;;;;;;;9.43;4.95;;;9.20;99.90;;;;;;4929619;29;20617;-69
2023/05/31 02:22:21;;;;;;;12.88;5.45;;;8.90;99.90;;;;;;4946922;29;20102;-70
2023/05/31 02:24:47;;;;;;;12.63;4.90;;;8.90;99.90;;;;;;4930599;29;20066;-70
2023/05/31 02:27:14;;;;;;;12.95;5.00;;;8.90;99.90;;;;;;4948508;29;20766;-69
2023/05/31 02:29:40;;;;;;;10.80;5.13;;;8.90;99.90;;;;;;4953097;28;20047;-70
2023/05/31 02:32:06;;;;;;;10.63;4.45;;;8.90;99.90;;;;;;4937404;29;20135;-70
2023/05/31 02:34:33;;;;;;;8.93;4.45;;;8.90;99.90;;;;;;4936699;29;20074;-70
2023/05/31 02:37:00;;;;;;;9.10;4.63;;;8.90;99.90;;;;;;4945049;29;20759;-69
2023/05/31 02:39:26;;;;;;;8.93;4.22;;;8.80;99.90;;;;;;4944795;28;20189;-69
2023/05/31 02:41:51;;;;;;;9.60;4.65;;;8.80;99.90;;;;;;4946942;28;20154;-69
2023/05/31 02:44:17;;;;;;;9.90;4.88;;;8.80;99.90;;;;;;4933282;29;20043;-70
2023/05/31 02:46:43;;;;;;;9.90;5.10;;;8.80;99.90;;;;;;4944777;29;20049;-69
2023/05/31 02:49:09;;;;;;;10.90;5.22;;;8.80;99.90;;;;;;4948829;28;20534;-69
2023/05/31 02:51:35;;;;;;;11.65;4.45;;;8.80;99.90;;;;;;4945555;29;20043;-70
2023/05/31 02:54:00;;;;;;;10.32;4.60;;;8.70;99.90;;;;;;4944500;28;20047;-69
2023/05/31 02:56:26;;;;;;;8.98;4.88;;;8.70;99.90;;;;;;4941749;29;20051;-70
2023/05/31 02:58:52;;;;;;;9.68;4.75;;;8.70;99.90;;;;;;4946182;28;20051;-72
2023/05/31 03:01:18;;;;;;;11.35;5.25;;;8.70;99.90;;;;;;4945337;29;20473;-70
2023/05/31 03:03:44;;;;;;;9.70;5.25;;;8.70;99.90;;;;;;4938698;29;20055;-69
2023/05/31 03:06:11;;;;;;;12.32;5.30;;;8.70;99.90;;;;;;4945797;28;20113;-71
2023/05/31 03:08:37;;;;;;;8.57;4.25;;;8.60;99.90;;;;;;4950022;28;20063;-71
2023/05/31 03:11:03;;;;;;;12.57;5.35;;;8.50;99.90;;;;;;4946688;29;20047;-71
2023/05/31 03:13:28;;;;;;;12.32;5.28;;;8.50;99.90;;;;;;4927223;29;20055;-71
2023/05/31 03:15:54;;;;;;;11.52;5.07;;;8.50;99.90;;;;;;4933061;29;20050;-72
2023/05/31 03:18:20;;;;;;;10.45;5.10;;;8.50;99.90;;;;;;4943531;28;20082;-70
2023/05/31 03:20:46;;;;;;;11.00;5.22;;;8.50;99.90;;;;;;4941168;29;20086;-71
2023/05/31 03:23:11;;;;;;;13.65;5.30;;;8.40;99.90;;;;;;4943443;29;20122;-70
2023/05/31 03:25:37;;;;;;;9.77;4.88;;;8.40;99.90;;;;;;4957566;28;20074;-71
2023/05/31 03:28:03;;;;;;;11.52;4.55;;;8.40;99.90;;;;;;4945466;28;20059;-70
2023/05/31 03:30:29;;;;;;;8.75;4.53;;;8.40;99.90;;;;;;4944349;28;20043;-69
2023/05/31 03:32:55;;;;;;;12.20;5.45;;;8.60;99.90;;;;;;4936487;29;20070;-69
2023/05/31 03:35:21;;;;;;;10.98;5.22;;;8.30;99.90;;;;;;4944227;28;20039;-70
2023/05/31 03:37:47;;;;;;;11.27;5.10;;;8.30;99.90;;;;;;4947321;28;20066;-70
2023/05/31 03:40:12;;;;;;;12.10;5.10;;;8.40;99.90;;;;;;4945562;29;20112;-71
2023/05/31 03:42:38;;;;;;;9.98;4.95;;;8.30;99.90;;;;;;4943645;29;20105;-71
2023/05/31 03:45:04;;;;;;;10.60;5.28;;;8.30;99.90;;;;;;4946689;29;20048;-71
2023/05/31 03:47:30;;;;;;;10.05;5.15;;;8.30;99.90;;;;;;4944738;28;20065;-71
2023/05/31 03:49:56;;;;;;;10.18;5.13;;;8.30;99.90;;;;;;4944762;29;20055;-70
2023/05/31 03:52:21;;;;;;;10.77;5.13;;;8.30;99.90;;;;;;4945364;29;20067;-70
2023/05/31 03:54:47;;;;;;;12.00;4.90;;;8.30;99.90;;;;;;4945144;29;20047;-71
2023/05/31 03:57:13;;;;;;;11.18;5.10;;;8.30;99.90;;;;;;4944282;28;20500;-70
2023/05/31 03:59:38;;;;;;;9.55;4.57;;;8.30;99.90;;;;;;4945279;29;20043;-71
2023/05/31 04:02:04;;;;;;;10.95;4.50;;;8.30;99.90;;;;;;4944456;29;20054;-71
2023/05/31 04:04:30;;;;;;;9.93;4.35;;;8.30;99.90;;;;;;4946805;29;20055;-70
2023/05/31 04:06:56;;;;;;;8.80;3.95;;;8.30;99.90;;;;;;4947714;28;20635;-70
2023/05/31 04:09:23;;;;;;;10.07;4.40;;;8.70;99.90;;;;;;4949309;28;20086;-72
2023/05/31 04:11:52;;;;;;;9.43;3.72;;;8.30;99.90;;;;;;4948217;28;20039;-70
2023/05/31 04:14:17;;;;;;;8.27;3.97;;;8.30;99.90;;;;;;4934048;29;20039;-70
2023/05/31 04:16:43;;;;;;;7.50;3.90;;;8.30;99.90;;;;;;4943288;29;20047;-71
2023/05/31 04:19:10;;;;;;;12.68;4.25;;;8.30;99.90;;;;;;4931292;29;20047;-70
2023/05/31 04:21:36;;;;;;;9.98;4.15;;;8.30;99.90;;;;;;4947505;29;20586;-71
2023/05/31 04:24:01;;;;;;;10.77;4.20;;;8.30;99.90;;;;;;4948167;28;20055;-72
2023/05/31 04:26:28;;;;;;;11.40;4.43;;;8.40;99.90;;;;;;4950556;29;20126;-72
2023/05/31 04:28:57;;;;;;;9.57;4.53;;;8.40;99.90;;;;;;4947150;29;20492;-72
2023/05/31 04:31:28;;;;;;;11.95;4.68;;;8.80;99.90;;;;;;4944659;29;20078;-71
2023/05/31 04:33:56;;;;;;;11.90;4.90;;;8.50;99.90;;;;;;4948269;29;20054;-70
2023/05/31 04:36:25;;;;;;;11.63;4.97;;;8.80;99.90;;;;;;4948361;29;20047;-71
2023/05/31 04:38:54;;;;;;;10.65;4.90;;;9.10;99.90;;;;;;4968296;28;20049;-73
2023/05/31 04:41:25;;;;;;;9.43;4.22;;;9.40;99.90;;;;;;4946820;29;20051;-71
2023/05/31 04:43:53;;;;;;;13.73;4.53;;;9.80;99.90;;;;;;4931155;29;20452;-70
2023/05/31 04:46:22;;;;;;;10.75;4.53;;;10.20;99.90;;;;;;4949661;29;20054;-70
2023/05/31 04:48:49;;;;;;;12.80;5.03;;;10.50;99.90;;;;;;4950724;28;20053;-71
2023/05/31 04:51:18;;;;;;;13.70;4.95;;;11.10;99.90;;;;;;4954023;28;20134;-71
2023/05/31 04:53:48;;;;;;;12.98;4.57;;;11.10;99.90;;;;;;4948952;29;20591;-71
2023/05/31 04:56:14;;;;;;;12.05;5.18;;;11.40;99.90;;;;;;4944683;29;20043;-71
2023/05/31 04:58:40;;;;;;;10.20;5.00;;;11.70;99.90;;;;;;4938667;28;20566;-71
2023/05/31 05:01:06;;;;;;;10.35;4.43;;;12.00;99.90;;;;;;4942533;29;20102;-71
2023/05/31 05:03:33;;;;;;;12.23;4.57;;;12.30;99.90;;;;;;4940710;29;20412;-72
2023/05/31 05:06:02;;;;;;;11.60;4.57;;;12.50;99.90;;;;;;4945806;28;20051;-71
2023/05/31 05:08:28;;;;;;;16.52;5.05;;;12.80;99.90;;;;;;4936024;29;20051;-71
2023/05/31 05:10:53;;;;;;;12.18;4.57;;;13.10;99.90;;;;;;4946850;29;20039;-71
2023/05/31 05:13:22;;;;;;;12.07;4.60;;;13.40;99.90;;;;;;4948263;28;20086;-71
2023/05/31 05:15:47;;;;;;;13.82;4.43;;;13.60;99.90;;;;;;4932659;28;20062;-71
2023/05/31 05:18:13;;;;;;;9.82;4.18;;;13.80;99.90;;;;;;4938044;28;20405;-71
2023/05/31 05:20:39;;;;;;;10.95;4.45;;;14.00;99.90;;;;;;4925969;28;20047;-71
2023/05/31 05:23:07;;;;;;;10.65;4.50;;;14.10;99.90;;;;;;4929940;28;20062;-71
2023/05/31 05:25:33;;;;;;;10.52;4.13;;;14.00;99.90;;;;;;4927619;28;20591;-71
2023/05/31 05:27:58;;;;;;;13.77;4.88;;;13.80;99.90;;;;;;4937158;29;20048;-70
2023/05/31 05:30:25;;;;;;;12.45;4.50;;;13.60;99.90;;;;;;4938329;29;20047;-71
2023/05/31 05:32:51;;;;;;;15.40;5.00;;;13.40;99.90;;;;;;4934599;28;20170;-71
2023/05/31 05:35:16;;;;;;;15.13;5.43;;;13.30;99.90;;;;;;4937163;28;20818;-71
2023/05/31 05:37:42;;;;;;;13.60;5.95;;;13.10;99.90;;;;;;4936402;28;20074;-72
2023/05/31 05:40:09;;;;;;;13.95;5.25;;;13.00;99.90;;;;;;4937312;29;20043;-72
2023/05/31 05:42:37;;;;;;;16.50;5.90;;;13.00;99.90;;;;;;4921733;29;20714;-73
2023/05/31 05:45:09;;;;;;;14.55;5.43;;;12.90;99.90;;;;;;4938477;29;20043;-71
2023/05/31 05:47:35;;;;;;;15.40;5.50;;;12.80;99.90;;;;;;4934161;29;20817;-70
2023/05/31 05:50:02;;;;;;;14.23;5.60;;;12.80;99.90;;;;;;4930969;28;20594;-71
2023/05/31 05:52:28;;;;;;;15.13;5.55;;;12.80;99.90;;;;;;4936425;29;20046;-71
2023/05/31 05:54:53;;;;;;;15.05;5.75;;;12.70;99.90;;;;;;4931061;28;20051;-70
2023/05/31 05:57:20;;;;;;;17.02;5.63;;;12.80;99.90;;;;;;4932895;29;20066;-71
2023/05/31 05:59:47;;;;;;;14.23;4.82;;;12.80;99.90;;;;;;4929700;28;20048;-71
2023/05/31 06:02:12;;;;;;;17.73;5.57;;;12.90;99.90;;;;;;4934460;29;20051;-71
2023/05/31 06:04:39;;;;;;;15.30;5.63;;;12.90;99.90;;;;;;4936697;28;20039;-70
2023/05/31 06:07:05;;;;;;;14.45;4.97;;;12.90;99.90;;;;;;4917697;29;20055;-71
2023/05/31 06:09:31;;;;;;;15.43;6.20;;;12.90;99.90;;;;;;4915695;29;20043;-71
2023/05/31 06:11:56;;;;;;;18.15;6.13;;;12.90;99.90;;;;;;4934417;29;21658;-70
2023/05/31 06:14:22;;;;;;;14.43;5.47;;;13.00;99.90;;;;;;4934080;29;20051;-70
2023/05/31 06:16:48;;;;;;;19.15;5.80;;;12.90;99.90;;;;;;4937188;28;20141;-71
2023/05/31 06:19:14;;;;;;;13.90;5.15;;;13.00;99.90;;;;;;4924302;29;20094;-70
2023/05/31 06:21:39;;;;;;;14.30;5.15;;;13.00;99.90;;;;;;4940894;28;20079;-71
2023/05/31 06:24:05;;;;;;;16.20;6.05;;;13.00;99.90;;;;;;4940318;28;20373;-70
2023/05/31 06:26:31;;;;;;;14.30;5.13;;;13.10;99.90;;;;;;4925048;28;20122;-70
2023/05/31 06:29:00;;;;;;;17.50;5.47;;;13.10;99.90;;;;;;4937969;28;20066;-71
2023/05/31 06:31:27;;;;;;;15.15;5.20;;;13.20;99.90;;;;;;4937988;28;20459;-72
2023/05/31 06:33:52;;;;;;;17.50;4.82;;;13.50;99.90;;;;;;4942722;29;20069;-72
2023/05/31 06:36:18;;;;;;;13.45;4.75;;;13.40;99.90;;;;;;4942670;28;20214;-70
2023/05/31 06:38:46;;;;;;;11.85;4.30;;;13.50;99.90;;;;;;4942765;29;20122;-70
2023/05/31 06:41:12;;;;;;;11.27;4.40;;;13.50;99.90;;;;;;4936376;28;20080;-70
2023/05/31 06:43:38;;;;;;;14.88;4.25;;;13.60;99.90;;;;;;4952795;28;20135;-72
2023/05/31 06:46:07;;;;;;;10.13;4.00;;;13.60;99.90;;;;;;4925090;29;20306;-73
2023/05/31 06:48:33;;;;;;;14.63;4.40;;;13.60;99.90;;;;;;4929587;29;20050;-72
2023/05/31 06:50:59;;;;;;;12.00;4.30;;;13.70;99.90;;;;;;4941025;29;20059;-71
2023/05/31 06:53:25;;;;;;;11.10;3.50;;;13.80;99.90;;;;;;4944311;28;20137;-71
2023/05/31 06:55:51;;;;;;;9.73;3.78;;;13.80;99.90;;;;;;4950717;28;20054;-72
2023/05/31 06:58:17;;;;;;;11.32;4.05;;;13.80;99.90;;;;;;4936172;29;20122;-72
2023/05/31 07:00:43;;;;;;;11.95;3.53;;;13.80;99.90;;;;;;4942120;28;20043;-73
2023/05/31 07:03:08;;;;;;;9.55;3.58;;;13.90;99.90;;;;;;4941006;29;20499;-72
2023/05/31 07:05:34;;;;;;;9.82;2.95;;;13.90;99.90;;;;;;4954936;28;20040;-72
2023/05/31 07:08:00;;;;;;;9.93;3.08;;;14.00;99.90;;;;;;4939728;29;20050;-72
2023/05/31 07:10:27;;;;;;;7.05;3.28;;;14.00;99.90;;;;;;4937886;28;20053;-71
2023/05/31 07:12:53;;;;;;;9.23;3.25;;;14.10;99.90;;;;;;4941262;28;20047;-71
2023/05/31 07:15:19;;;;;;;10.05;2.78;;;14.20;99.90;;;;;;4944482;28;20055;-72
2023/05/31 07:17:45;;;;;;;10.82;3.00;;;14.20;99.90;;;;;;4934805;29;20059;-72
2023/05/31 07:20:11;;;;;;;10.35;2.85;;;14.30;99.90;;;;;;4941086;29;20101;-72
2023/05/31 07:22:37;;;;;;;7.68;2.70;;;14.40;99.90;;;;;;4939242;28;20058;-72
2023/05/31 07:25:04;;;;;;;10.02;3.17;;;14.60;99.90;;;;;;4936743;29;20047;-71
2023/05/31 07:27:30;;;;;;;10.68;2.95;;;14.70;99.90;;;;;;4932347;29;20087;-71
2023/05/31 07:29:56;;;;;;;9.45;2.80;;;14.90;99.90;;;;;;4942277;28;20085;-71
2023/05/31 07:32:22;;;;;;;8.93;2.97;;;15.00;99.90;;;;;;4935960;29;20625;-73
2023/05/31 07:34:48;;;;;;;7.65;2.50;;;15.10;99.90;;;;;;4941692;29;20130;-70
2023/05/31 07:37:14;;;;;;;8.43;3.10;;;15.20;99.90;;;;;;4951664;28;20134;-72
2023/05/31 07:39:40;;;;;;;9.85;2.78;;;15.30;99.90;;;;;;4936583;29;20039;-72
2023/05/31 07:42:06;;;;;;;8.13;2.40;;;15.50;99.90;;;;;;4931677;29;20055;-72
2023/05/31 07:44:31;;;;;;;10.43;3.40;;;15.50;99.90;;;;;;4929854;29;20039;-72
2023/05/31 07:46:57;;;;;;;7.82;2.70;;;15.60;99.90;;;;;;4936253;28;20057;-72
2023/05/31 07:49:23;;;;;;;10.88;3.47;;;15.70;99.90;;;;;;4941912;28;20920;-72
2023/05/31 07:51:49;;;;;;;7.80;2.67;;;15.80;99.90;;;;;;4941456;29;20051;-72
2023/05/31 07:54:14;;;;;;;10.48;2.67;;;15.90;99.90;;;;;;4943741;29;20448;-71
2023/05/31 07:56:40;;;;;;;12.55;2.85;;;16.00;99.90;;;;;;4938553;29;20847;-72
2023/05/31 07:59:06;;;;;;;9.85;2.80;;;16.10;99.90;;;;;;4937530;28;20045;-72
2023/05/31 08:01:33;;;;;;;11.38;3.00;;;16.30;99.90;;;;;;4925846;29;20047;-73
2023/05/31 08:04:11;;;;;;;8.00;3.20;;;16.30;99.90;;;;;;4944909;28;20051;-72
2023/05/31 08:06:36;;;;;;;13.23;3.38;;;16.40;99.90;;;;;;4934904;29;20057;-71
2023/05/31 08:09:06;;;;;;;7.57;2.50;;;16.50;99.90;;;;;;4940628;28;20420;-71
2023/05/31 08:11:35;;;;;;;9.55;3.22;;;16.60;99.90;;;;;;4942345;28;20075;-72
2023/05/31 08:14:04;;;;;;;11.13;2.70;;;16.60;99.90;;;;;;4931240;28;20055;-72
2023/05/31 08:16:31;;;;;;;9.75;3.10;;;16.70;99.90;;;;;;4937944;28;20644;-72
2023/05/31 08:18:57;;;;;;;11.82;3.13;;;16.80;99.90;;;;;;4940101;29;20114;-73
2023/05/31 08:21:23;;;;;;;11.82;4.07;;;16.90;99.90;;;;;;4940182;28;20043;-71
2023/05/31 08:23:49;;;;;;;11.13;3.53;;;17.00;99.90;;;;;;4939889;28;20151;-71
2023/05/31 08:26:14;;;;;;;6.82;2.47;;;17.00;99.90;;;;;;4940952;28;20710;-72
2023/05/31 08:28:40;;;;;;;8.70;3.00;;;17.00;99.90;;;;;;4937079;29;20043;-70
2023/05/31 08:31:07;;;;;;;8.50;3.17;;;17.10;99.90;;;;;;4934112;28;20059;-72
2023/05/31 08:33:33;;;;;;;12.68;3.38;;;17.20;99.90;;;;;;4932961;28;21004;-71
2023/05/31 08:35:59;;;;;;;11.70;3.33;;;17.20;99.90;;;;;;4938516;29;20123;-72
2023/05/31 08:38:29;;;;;;;6.95;2.75;;;17.30;99.90;;;;;;4942141;28;20059;-72
2023/05/31 08:41:00;;;;;;;9.05;3.13;;;17.30;99.90;;;;;;4935930;29;20055;-71
2023/05/31 08:43:26;;;;;;;;;;;17.30;99.90;;;;;;4937823;28;20574;-72
2023/05/31 08:45:52;;;;;;;8.50;3.00;;;17.30;99.90;;;;;;4932920;29;19953;-72
2023/05/31 08:48:49;;;;;;;7.50;3.00;;;17.30;99.90;;;;;;4944165;28;20579;-74
2023/05/31 08:51:16;;;;;;;6.93;2.60;;;17.30;99.90;;;;;;4940984;28;20043;-73
2023/05/31 08:53:43;;;;;;;7.00;2.22;;;17.30;99.90;;;;;;4944397;28;20039;-73
2023/05/31 08:56:09;;;;;;;12.18;2.90;;;17.30;99.90;;;;;;4946372;29;20048;-73
2023/05/31 08:58:37;;;;;;;11.95;3.70;;;17.30;99.90;;;;;;4952601;28;20042;-73
2023/05/31 09:01:03;;;;;;;12.52;2.92;;;17.30;99.90;;;;;;4954816;28;20531;-73
2023/05/31 09:03:32;;;;;;;9.88;2.63;;;17.40;99.90;;;;;;4944233;29;20051;-72
2023/05/31 09:05:58;;;;;;;13.68;3.10;;;17.40;99.90;;;;;;4940233;29;20130;-73
2023/05/31 09:08:24;;;;;;;10.13;2.88;;;17.60;99.90;;;;;;4964758;28;20112;-74
2023/05/31 09:10:51;;;;;;;12.35;3.38;;;17.60;99.90;;;;;;4940840;28;20110;-74
2023/05/31 09:13:17;;;;;;;12.75;3.08;;;17.70;99.90;;;;;;4945953;29;20051;-74
2023/05/31 09:15:45;;;;;;;15.18;3.38;;;17.70;99.90;;;;;;4935884;29;20047;-72
2023/05/31 09:18:15;;;;;;;10.05;3.80;;;17.80;99.90;;;;;;4944870;29;20051;-74
2023/05/31 09:20:42;;;;;;;12.50;3.50;;;17.80;99.90;;;;;;4942851;29;20601;-73
2023/05/31 09:23:09;;;;;;;12.45;3.83;;;17.90;99.90;;;;;;4931375;29;20047;-74
2023/05/31 09:25:44;;;;;;;11.88;3.72;;;17.90;99.90;;;;;;4941891;29;20058;-74
2023/05/31 09:28:11;;;;;;;13.52;3.72;;;17.90;99.90;;;;;;4944857;29;20488;-73
2023/05/31 09:30:36;;;;;;;16.40;3.78;;;17.90;99.90;;;;;;4944341;28;20158;-74
2023/05/31 09:33:02;;;;;;;12.35;3.88;;;18.00;99.90;;;;;;4936674;28;20051;-74
2023/05/31 09:35:28;;;;;;;16.95;4.22;;;18.00;99.90;;;;;;4943712;28;20047;-74
2023/05/31 09:37:54;;;;;;;18.30;4.68;;;18.10;99.90;;;;;;4958717;28;20749;-74
2023/05/31 09:40:27;;;;;;;16.42;4.80;;;18.10;99.90;;;;;;4939193;29;20047;-74
2023/05/31 09:42:53;;;;;;;14.32;4.38;;;18.00;99.90;;;;;;4937420;29;20043;-74
2023/05/31 09:45:23;;;;;;;15.18;4.57;;;17.90;99.90;;;;;;4935315;29;20085;-74
2023/05/31 09:47:49;;;;;;;15.25;4.82;;;17.80;99.90;;;;;;4936971;29;20072;-73
2023/05/31 09:50:23;;;;;;;15.52;3.70;;;17.80;99.90;;;;;;4943926;29;20051;-73
2023/05/31 09:52:54;;;;;;;12.88;4.70;;;17.70;99.90;;;;;;4917261;29;20078;-73
2023/05/31 09:55:23;;;;;;;19.80;4.75;;;17.70;99.90;;;;;;4922326;29;20051;-73
2023/05/31 09:57:52;;;;;;;15.45;4.35;;;17.70;99.90;;;;;;4940681;28;20085;-74
2023/05/31 10:00:18;;;;;;;14.88;4.53;;;17.60;99.90;;;;;;4939771;28;20045;-75
2023/05/31 10:02:46;;;;;;;14.35;4.20;;;17.50;99.90;;;;;;4936937;28;20054;-74
2023/05/31 10:05:13;;;;;;;12.73;4.82;;;17.40;99.90;;;;;;4943390;29;20046;-74
2023/05/31 10:07:40;;;;;;;12.38;4.32;;;17.40;99.90;;;;;;4943341;29;20051;-74
2023/05/31 10:10:07;;;;;;;12.00;4.68;;;17.40;99.90;;;;;;4941183;28;20087;-73
2023/05/31 10:12:43;;;;;;;13.27;5.03;;;17.40;99.90;;;;;;4944578;28;20957;-70
2023/05/31 10:15:12;;;;;;;14.68;5.07;;;17.40;99.90;;;;;;4955759;28;20583;-70
2023/05/31 10:17:45;;;;;;;13.00;5.00;;;17.50;99.90;;;;;;4938690;29;20043;-69
2023/05/31 10:20:15;;;;;;;12.38;5.03;;;17.50;99.90;;;;;;4942557;28;20540;-69
2023/05/31 10:22:43;;;;;;;12.77;4.75;;;17.40;99.90;;;;;;4939828;28;20055;-70
2023/05/31 10:25:17;;;;;;;12.32;4.40;;;17.40;99.90;;;;;;4939287;29;20174;-69
2023/05/31 10:27:50;;;;;;;15.55;5.90;;;17.40;99.90;;;;;;4922009;29;20055;-68
2023/05/31 10:30:24;;;;;;;10.07;4.95;;;17.30;99.90;;;;;;4956422;28;20055;-69
2023/05/31 10:33:00;;;;;;;11.57;5.43;;;17.30;99.90;;;;;;4942731;29;20578;-69
2023/05/31 10:35:26;;;;;;;16.65;6.45;;;17.30;99.90;;;;;;4941786;29;20833;-69
2023/05/31 10:37:53;;;;;;;13.07;5.32;;;17.30;99.90;;;;;;4944121;29;20126;-69
2023/05/31 10:40:26;;;;;;;12.63;5.55;;;17.30;99.90;;;;;;4942357;29;20560;-69
2023/05/31 10:42:56;;;;;;;14.05;6.00;;;17.40;99.90;;;;;;4939420;28;20039;-69
2023/05/31 10:45:53;;;;;;;15.88;6.45;;;17.40;99.90;;;;;;4943491;29;20585;-68
2023/05/31 10:48:53;;;;;;;13.32;6.05;;;17.40;99.90;;;;;;4922663;29;20157;-69
2023/05/31 10:51:19;;;;;;;12.00;5.65;;;17.50;99.90;;;;;;4944415;29;20467;-69
2023/05/31 10:53:46;;;;;;;13.07;5.57;;;17.60;99.90;;;;;;4936602;28;20126;-69
2023/05/31 10:56:14;;;;;;;12.68;5.25;;;17.60;99.90;;;;;;4924387;29;20067;-69
2023/05/31 10:58:53;;;;;;;16.92;6.22;;;17.60;99.90;;;;;;4920900;29;20058;-68
2023/05/31 11:01:21;;;;;;;13.60;5.57;;;17.60;99.90;;;;;;4929687;29;20059;-69
2023/05/31 11:03:57;;;;;;;15.73;5.35;;;17.60;99.90;;;;;;4937732;29;20078;-68
2023/05/31 11:06:28;;;;;;;12.88;4.97;;;17.60;99.90;;;;;;4939970;29;20663;-68
2023/05/31 11:08:59;;;;;;;15.88;4.57;;;17.70;99.90;;;;;;4944037;28;20726;-68
2023/05/31 11:11:44;;;;;;;15.68;5.10;;;17.70;99.90;;;;;;4939069;28;20070;-69
2023/05/31 11:14:27;;;;;;;12.27;4.30;;;17.70;99.90;;;;;;4942833;28;20087;-68
2023/05/31 11:16:53;;;;;;;10.07;4.03;;;17.60;99.90;;;;;;4923250;29;20050;-69
2023/05/31 11:19:26;;;;;;;12.15;4.25;;;17.60;99.90;;;;;;4940661;29;20047;-69
2023/05/31 11:21:52;;;;;;;11.25;4.35;;;17.70;99.90;;;;;;4918389;29;20554;-69
2023/05/31 11:24:37;;;;;;;9.30;3.97;;;17.70;99.90;;;;;;4938403;29;20085;-73
2023/05/31 11:27:05;;;;;;;13.73;4.65;;;17.80;99.90;;;;;;4937229;28;20055;-74
2023/05/31 11:29:53;;;;;;;12.73;4.50;;;17.80;99.90;;;;;;4923519;29;20170;-73
2023/05/31 11:32:20;;;;;;;11.15;4.35;;;17.90;99.90;;;;;;4934601;29;20419;-74
2023/05/31 11:34:53;;;;;;;15.20;4.30;;;17.90;99.90;;;;;;4934081;29;20133;-73
2023/05/31 11:37:23;;;;;;;11.93;3.90;;;17.90;99.90;;;;;;4938942;28;20039;-74
2023/05/31 11:39:50;;;;;;;10.30;3.72;;;17.90;99.90;;;;;;4933725;29;20636;-73
2023/05/31 11:42:19;;;;;;;13.90;4.45;;;17.80;99.90;;;;;;4921715;29;20070;-73
2023/05/31 11:44:46;;;;;;;14.75;4.30;;;17.90;99.90;;;;;;4947577;28;20051;-73
2023/05/31 11:47:18;;;;;;;13.05;4.30;;;18.00;99.90;;;;;;4939721;29;20047;-72
2023/05/31 11:49:44;;;;;;;12.10;4.32;;;18.00;99.90;;;;;;4936443;29;20083;-74
2023/05/31 11:52:15;;;;;;;14.30;4.80;;;18.00;99.90;;;;;;4934088;29;20053;-74
2023/05/31 11:54:43;;;;;;;16.33;5.03;;;18.10;99.90;;;;;;4946016;28;20726;-74
2023/05/31 11:57:09;;;;;;;16.15;5.47;;;18.00;99.90;;;;;;4935138;29;20747;-73
2023/05/31 11:59:36;;;;;;;16.45;5.00;;;17.90;99.90;;;;;;4932063;28;20043;-74
2023/05/31 12:02:04;;;;;;;14.55;5.45;;;17.90;99.90;;;;;;4930769;29;20047;-74
2023/05/31 12:04:38;;;;;;;13.05;5.20;;;17.90;99.90;;;;;;4936482;28;20081;-73
2023/05/31 12:07:05;;;;;;;12.43;5.20;;;18.00;99.90;;;;;;4936620;29;20082;-73
2023/05/31 12:09:33;;;;;;;14.10;4.95;;;18.00;99.90;;;;;;4936601;29;20051;-73
2023/05/31 12:12:02;;;;;;;13.55;5.85;;;18.00;99.90;;;;;;4938112;28;20047;-73
2023/05/31 12:14:28;;;;;;;14.40;5.10;;;18.00;99.90;;;;;;4939215;28;20047;-73
2023/05/31 12:16:54;;;;;;;16.63;4.70;;;18.00;99.90;;;;;;4941524;28;20050;-75
2023/05/31 12:19:21;;;;;;;15.20;4.93;;;17.90;99.90;;;;;;4940334;28;20047;-74
2023/05/31 12:21:47;;;;;;;11.07;5.43;;;17.90;99.90;;;;;;4940653;29;20094;-74
2023/05/31 12:24:15;;;;;;;9.55;4.03;;;17.80;99.90;;;;;;4935578;29;20059;-73
2023/05/31 12:26:47;;;;;;;12.82;4.75;;;17.80;99.90;;;;;;4946536;28;20521;-70
2023/05/31 12:29:14;;;;;;;11.20;4.60;;;17.80;99.90;;;;;;4936352;28;20039;-70
2023/05/31 12:31:40;;;;;;;11.40;4.40;;;17.80;99.90;;;;;;4942239;29;20042;-70
2023/05/31 12:34:05;;;;;;;13.55;4.07;;;17.80;99.90;;;;;;4944247;29;20054;-69
2023/05/31 12:36:38;;;;;;;13.98;3.92;;;17.80;99.90;;;;;;4928371;29;20040;-69
2023/05/31 12:39:12;;;;;;;11.70;3.85;;;17.80;99.90;;;;;;4944660;28;20058;-69
2023/05/31 12:41:42;;;;;;;8.40;3.28;;;17.80;99.90;;;;;;4938818;29;20413;-69
2023/05/31 12:44:07;;;;;;;9.38;3.60;;;17.70;99.90;;;;;;4956999;28;20079;-70
2023/05/31 12:46:41;;;;;;;12.52;3.75;;;17.70;99.90;;;;;;4943251;29;20089;-70